sensor_id;sensor_type;location;lat;lon;timestamp;P1;durP1;ratioP1;P2;durP2;ratioP2
12127;SDS011;6127;57.702;11.904;2023-04-02T00:07:32;0.43;;;0.43;;
12127;SDS011;6127;57.702;11.904;2023-04-02T00:10:02;0.60;;;0.60;;
12127;SDS011;6127;57.702;11.904;2023-04-02T00:12:28;0.43;;;0.43;;
12127;SDS011;6127;57.702;11.904;2023-04-02T00:14:54;0.50;;;0.50;;
12127;SDS011;6127;57.702;11.904;2023-04-02T00:17:22;0.60;;;0.60;;
12127;SDS011;6127;57.702;11.904;2023-04-02T00:19:53;0.50;;;0.50;;
12127;SDS011;6127;57.702;11.904;2023-04-02T00:22:26;0.50;;;0.50;;
12127;SDS011;6127;57.702;11.904;2023-04-02T00:24:53;0.40;;;0.40;;
12127;SDS011;6127;57.702;11.904;2023-04-02T00:27:20;0.50;;;0.50;;
12127;SDS011;6127;57.702;11.904;2023-04-02T00:29:46;0.60;;;0.60;;
12127;SDS011;6127;57.702;11.904;2023-04-02T00:32:16;0.50;;;0.50;;
12127;SDS011;6127;57.702;11.904;2023-04-02T00:34:42;0.60;;;0.60;;
12127;SDS011;6127;57.702;11.904;2023-04-02T00:37:12;0.50;;;0.50;;
12127;SDS011;6127;57.702;11.904;2023-04-02T00:39:42;0.60;;;0.60;;
12127;SDS011;6127;57.702;11.904;2023-04-02T00:42:08;0.60;;;0.60;;
12127;SDS011;6127;57.702;11.904;2023-04-02T00:44:36;0.50;;;0.50;;
12127;SDS011;6127;57.702;11.904;2023-04-02T00:47:09;0.60;;;0.60;;
12127;SDS011;6127;57.702;11.904;2023-04-02T00:49:39;0.50;;;0.50;;
12127;SDS011;6127;57.702;11.904;2023-04-02T00:52:09;0.50;;;0.50;;
12127;SDS011;6127;57.702;11.904;2023-04-02T00:54:37;0.50;;;0.50;;
12127;SDS011;6127;57.702;11.904;2023-04-02T00:57:05;0.50;;;0.50;;
12127;SDS011;6127;57.702;11.904;2023-04-02T00:59:42;0.60;;;0.60;;
12127;SDS011;6127;57.702;11.904;2023-04-02T01:04:38;0.60;;;0.60;;
12127;SDS011;6127;57.702;11.904;2023-04-02T01:07:06;0.60;;;0.60;;
12127;SDS011;6127;57.702;11.904;2023-04-02T01:12:08;0.60;;;0.60;;
12127;SDS011;6127;57.702;11.904;2023-04-02T01:25:01;0.60;;;0.60;;
12127;SDS011;6127;57.702;11.904;2023-04-02T01:30:20;0.50;;;0.50;;
12127;SDS011;6127;57.702;11.904;2023-04-02T01:32:46;0.60;;;0.60;;
12127;SDS011;6127;57.702;11.904;2023-04-02T01:35:12;0.50;;;0.50;;
12127;SDS011;6127;57.702;11.904;2023-04-02T01:45:12;0.40;;;0.40;;
12127;SDS011;6127;57.702;11.904;2023-04-02T01:47:39;0.60;;;0.60;;
12127;SDS011;6127;57.702;11.904;2023-04-02T01:52:38;0.50;;;0.50;;
12127;SDS011;6127;57.702;11.904;2023-04-02T01:55:06;0.60;;;0.60;;
12127;SDS011;6127;57.702;11.904;2023-04-02T01:57:32;0.50;;;0.50;;
12127;SDS011;6127;57.702;11.904;2023-04-02T01:59:58;0.60;;;0.60;;
12127;SDS011;6127;57.702;11.904;2023-04-02T02:02:25;0.40;;;0.40;;
12127;SDS011;6127;57.702;11.904;2023-04-02T02:04:51;0.60;;;0.60;;
12127;SDS011;6127;57.702;11.904;2023-04-02T02:07:18;0.57;;;0.57;;
12127;SDS011;6127;57.702;11.904;2023-04-02T02:09:45;0.50;;;0.50;;
12127;SDS011;6127;57.702;11.904;2023-04-02T02:12:12;0.60;;;0.60;;
12127;SDS011;6127;57.702;11.904;2023-04-02T02:14:44;0.50;;;0.50;;
12127;SDS011;6127;57.702;11.904;2023-04-02T02:17:10;0.60;;;0.60;;
12127;SDS011;6127;57.702;11.904;2023-04-02T02:22:10;0.60;;;0.60;;
12127;SDS011;6127;57.702;11.904;2023-04-02T02:24:39;0.50;;;0.50;;
12127;SDS011;6127;57.702;11.904;2023-04-02T02:27:09;0.50;;;0.50;;
12127;SDS011;6127;57.702;11.904;2023-04-02T02:29:39;0.57;;;0.57;;
12127;SDS011;6127;57.702;11.904;2023-04-02T02:32:08;0.40;;;0.40;;
12127;SDS011;6127;57.702;11.904;2023-04-02T02:34:36;0.60;;;0.60;;
12127;SDS011;6127;57.702;11.904;2023-04-02T02:37:05;0.60;;;0.60;;
12127;SDS011;6127;57.702;11.904;2023-04-02T02:39:36;0.50;;;0.50;;
12127;SDS011;6127;57.702;11.904;2023-04-02T02:42:11;0.60;;;0.60;;
12127;SDS011;6127;57.702;11.904;2023-04-02T02:44:40;0.50;;;0.50;;
12127;SDS011;6127;57.702;11.904;2023-04-02T02:47:27;0.60;;;0.60;;
12127;SDS011;6127;57.702;11.904;2023-04-02T02:49:57;0.40;;;0.40;;
12127;SDS011;6127;57.702;11.904;2023-04-02T02:52:26;0.50;;;0.50;;
12127;SDS011;6127;57.702;11.904;2023-04-02T02:54:56;0.60;;;0.60;;
12127;SDS011;6127;57.702;11.904;2023-04-02T02:57:24;0.50;;;0.50;;
12127;SDS011;6127;57.702;11.904;2023-04-02T02:59:52;0.60;;;0.60;;
12127;SDS011;6127;57.702;11.904;2023-04-02T03:02:19;0.50;;;0.50;;
12127;SDS011;6127;57.702;11.904;2023-04-02T03:04:49;0.57;;;0.57;;
12127;SDS011;6127;57.702;11.904;2023-04-02T03:07:17;0.50;;;0.50;;
12127;SDS011;6127;57.702;11.904;2023-04-02T03:09:52;0.50;;;0.50;;
12127;SDS011;6127;57.702;11.904;2023-04-02T03:14:52;0.50;;;0.50;;
12127;SDS011;6127;57.702;11.904;2023-04-02T03:17:25;0.60;;;0.60;;
12127;SDS011;6127;57.702;11.904;2023-04-02T03:20:10;0.50;;;0.50;;
12127;SDS011;6127;57.702;11.904;2023-04-02T03:22:52;0.50;;;0.50;;
12127;SDS011;6127;57.702;11.904;2023-04-02T03:25:25;0.60;;;0.60;;
12127;SDS011;6127;57.702;11.904;2023-04-02T03:27:55;0.50;;;0.50;;
12127;SDS011;6127;57.702;11.904;2023-04-02T03:33:12;0.47;;;0.47;;
12127;SDS011;6127;57.702;11.904;2023-04-02T03:35:45;0.50;;;0.50;;
12127;SDS011;6127;57.702;11.904;2023-04-02T03:38:14;0.60;;;0.60;;
12127;SDS011;6127;57.702;11.904;2023-04-02T03:40:42;0.50;;;0.50;;
12127;SDS011;6127;57.702;11.904;2023-04-02T03:45:43;0.50;;;0.50;;
12127;SDS011;6127;57.702;11.904;2023-04-02T03:48:53;0.60;;;0.60;;
12127;SDS011;6127;57.702;11.904;2023-04-02T03:51:04;0.60;;;0.60;;
12127;SDS011;6127;57.702;11.904;2023-04-02T03:53:31;0.50;;;0.50;;
12127;SDS011;6127;57.702;11.904;2023-04-02T03:55:58;0.60;;;0.60;;
12127;SDS011;6127;57.702;11.904;2023-04-02T03:58:38;0.50;;;0.50;;
12127;SDS011;6127;57.702;11.904;2023-04-02T04:03:42;0.52;;;0.52;;
12127;SDS011;6127;57.702;11.904;2023-04-02T04:06:15;0.50;;;0.50;;
12127;SDS011;6127;57.702;11.904;2023-04-02T04:09:17;0.60;;;0.60;;
12127;SDS011;6127;57.702;11.904;2023-04-02T04:11:37;0.40;;;0.40;;
12127;SDS011;6127;57.702;11.904;2023-04-02T04:16:38;0.40;;;0.40;;
12127;SDS011;6127;57.702;11.904;2023-04-02T04:19:13;0.60;;;0.60;;
12127;SDS011;6127;57.702;11.904;2023-04-02T04:21:42;0.60;;;0.60;;
12127;SDS011;6127;57.702;11.904;2023-04-02T04:24:22;0.50;;;0.50;;
12127;SDS011;6127;57.702;11.904;2023-04-02T04:31:44;0.60;;;0.60;;
12127;SDS011;6127;57.702;11.904;2023-04-02T04:34:14;0.50;;;0.50;;
12127;SDS011;6127;57.702;11.904;2023-04-02T04:36:50;0.57;;;0.57;;
12127;SDS011;6127;57.702;11.904;2023-04-02T04:39:22;0.60;;;0.60;;
12127;SDS011;6127;57.702;11.904;2023-04-02T04:41:53;0.50;;;0.50;;
12127;SDS011;6127;57.702;11.904;2023-04-02T04:44:24;0.60;;;0.60;;
12127;SDS011;6127;57.702;11.904;2023-04-02T04:49:21;0.50;;;0.50;;
12127;SDS011;6127;57.702;11.904;2023-04-02T04:51:50;0.40;;;0.40;;
12127;SDS011;6127;57.702;11.904;2023-04-02T04:54:17;0.50;;;0.50;;
12127;SDS011;6127;57.702;11.904;2023-04-02T04:56:47;0.60;;;0.60;;
12127;SDS011;6127;57.702;11.904;2023-04-02T04:59:16;0.50;;;0.50;;
12127;SDS011;6127;57.702;11.904;2023-04-02T05:01:46;0.60;;;0.60;;
12127;SDS011;6127;57.702;11.904;2023-04-02T05:04:21;0.52;;;0.52;;
12127;SDS011;6127;57.702;11.904;2023-04-02T05:09:43;0.60;;;0.60;;
12127;SDS011;6127;57.702;11.904;2023-04-02T05:12:29;0.50;;;0.50;;
12127;SDS011;6127;57.702;11.904;2023-04-02T05:15:19;0.60;;;0.60;;
12127;SDS011;6127;57.702;11.904;2023-04-02T05:18:01;0.50;;;0.50;;
12127;SDS011;6127;57.702;11.904;2023-04-02T05:20:34;0.60;;;0.60;;
12127;SDS011;6127;57.702;11.904;2023-04-02T05:25:50;0.50;;;0.50;;
12127;SDS011;6127;57.702;11.904;2023-04-02T05:28:22;0.60;;;0.60;;
12127;SDS011;6127;57.702;11.904;2023-04-02T05:33:23;0.60;;;0.60;;
12127;SDS011;6127;57.702;11.904;2023-04-02T05:35:57;0.60;;;0.60;;
12127;SDS011;6127;57.702;11.904;2023-04-02T05:38:25;0.50;;;0.50;;
12127;SDS011;6127;57.702;11.904;2023-04-02T05:40:59;0.60;;;0.60;;
12127;SDS011;6127;57.702;11.904;2023-04-02T05:43:26;0.50;;;0.50;;
12127;SDS011;6127;57.702;11.904;2023-04-02T05:45:54;0.60;;;0.60;;
12127;SDS011;6127;57.702;11.904;2023-04-02T05:48:26;0.43;;;0.43;;
12127;SDS011;6127;57.702;11.904;2023-04-02T05:50:53;0.50;;;0.50;;
12127;SDS011;6127;57.702;11.904;2023-04-02T05:53:22;0.50;;;0.50;;
12127;SDS011;6127;57.702;11.904;2023-04-02T05:55:51;0.50;;;0.50;;
12127;SDS011;6127;57.702;11.904;2023-04-02T05:58:23;0.60;;;0.60;;
12127;SDS011;6127;57.702;11.904;2023-04-02T06:00:53;0.50;;;0.50;;
12127;SDS011;6127;57.702;11.904;2023-04-02T06:03:30;0.60;;;0.60;;
12127;SDS011;6127;57.702;11.904;2023-04-02T06:06:00;0.50;;;0.50;;
12127;SDS011;6127;57.702;11.904;2023-04-02T06:08:32;0.50;;;0.50;;
12127;SDS011;6127;57.702;11.904;2023-04-02T06:11:10;0.60;;;0.60;;
12127;SDS011;6127;57.702;11.904;2023-04-02T06:13:37;0.50;;;0.50;;
12127;SDS011;6127;57.702;11.904;2023-04-02T06:16:03;0.60;;;0.60;;
12127;SDS011;6127;57.702;11.904;2023-04-02T06:18:31;0.40;;;0.40;;
12127;SDS011;6127;57.702;11.904;2023-04-02T06:20:59;0.50;;;0.50;;
12127;SDS011;6127;57.702;11.904;2023-04-02T06:23:36;0.60;;;0.60;;
12127;SDS011;6127;57.702;11.904;2023-04-02T06:26:04;0.60;;;0.60;;
12127;SDS011;6127;57.702;11.904;2023-04-02T06:28:39;0.60;;;0.60;;
12127;SDS011;6127;57.702;11.904;2023-04-02T06:31:08;0.47;;;0.47;;
12127;SDS011;6127;57.702;11.904;2023-04-02T06:33:35;0.50;;;0.50;;
12127;SDS011;6127;57.702;11.904;2023-04-02T06:36:01;0.60;;;0.60;;
12127;SDS011;6127;57.702;11.904;2023-04-02T06:38:28;0.50;;;0.50;;
12127;SDS011;6127;57.702;11.904;2023-04-02T06:40:56;0.60;;;0.60;;
12127;SDS011;6127;57.702;11.904;2023-04-02T06:43:24;0.40;;;0.40;;
12127;SDS011;6127;57.702;11.904;2023-04-02T06:45:57;0.50;;;0.50;;
12127;SDS011;6127;57.702;11.904;2023-04-02T06:48:24;0.60;;;0.60;;
12127;SDS011;6127;57.702;11.904;2023-04-02T06:50:55;0.50;;;0.50;;
12127;SDS011;6127;57.702;11.904;2023-04-02T06:53:24;0.50;;;0.50;;
12127;SDS011;6127;57.702;11.904;2023-04-02T06:55:57;0.40;;;0.40;;
12127;SDS011;6127;57.702;11.904;2023-04-02T06:58:25;0.50;;;0.50;;
12127;SDS011;6127;57.702;11.904;2023-04-02T07:00:51;0.60;;;0.60;;
12127;SDS011;6127;57.702;11.904;2023-04-02T07:03:21;0.40;;;0.40;;
12127;SDS011;6127;57.702;11.904;2023-04-02T07:05:48;0.50;;;0.50;;
12127;SDS011;6127;57.702;11.904;2023-04-02T07:08:14;0.60;;;0.60;;
12127;SDS011;6127;57.702;11.904;2023-04-02T07:10:40;0.50;;;0.50;;
12127;SDS011;6127;57.702;11.904;2023-04-02T07:13:07;0.60;;;0.60;;
12127;SDS011;6127;57.702;11.904;2023-04-02T07:15:34;0.43;;;0.43;;
12127;SDS011;6127;57.702;11.904;2023-04-02T07:18:00;0.50;;;0.50;;
12127;SDS011;6127;57.702;11.904;2023-04-02T07:20:33;0.60;;;0.60;;
12127;SDS011;6127;57.702;11.904;2023-04-02T07:23:01;0.40;;;0.40;;
12127;SDS011;6127;57.702;11.904;2023-04-02T07:25:27;0.50;;;0.50;;
12127;SDS011;6127;57.702;11.904;2023-04-02T07:27:53;0.60;;;0.60;;
12127;SDS011;6127;57.702;11.904;2023-04-02T07:30:20;0.40;;;0.40;;
12127;SDS011;6127;57.702;11.904;2023-04-02T07:32:46;0.50;;;0.50;;
12127;SDS011;6127;57.702;11.904;2023-04-02T07:35:12;0.55;;;0.55;;
12127;SDS011;6127;57.702;11.904;2023-04-02T07:37:38;0.35;;;0.35;;
12127;SDS011;6127;57.702;11.904;2023-04-02T07:40:17;0.50;;;0.50;;
12127;SDS011;6127;57.702;11.904;2023-04-02T07:42:44;0.55;;;0.55;;
12127;SDS011;6127;57.702;11.904;2023-04-02T07:45:11;0.47;;;0.47;;
12127;SDS011;6127;57.702;11.904;2023-04-02T07:47:37;0.50;;;0.50;;
12127;SDS011;6127;57.702;11.904;2023-04-02T07:50:03;0.60;;;0.60;;
12127;SDS011;6127;57.702;11.904;2023-04-02T07:52:29;0.50;;;0.50;;
12127;SDS011;6127;57.702;11.904;2023-04-02T07:54:55;0.40;;;0.40;;
12127;SDS011;6127;57.702;11.904;2023-04-02T07:57:21;0.50;;;0.50;;
12127;SDS011;6127;57.702;11.904;2023-04-02T07:59:47;0.50;;;0.50;;
12127;SDS011;6127;57.702;11.904;2023-04-02T08:02:18;0.30;;;0.30;;
12127;SDS011;6127;57.702;11.904;2023-04-02T08:04:45;0.40;;;0.40;;
12127;SDS011;6127;57.702;11.904;2023-04-02T08:07:11;0.50;;;0.50;;
12127;SDS011;6127;57.702;11.904;2023-04-02T08:09:36;0.43;;;0.43;;
12127;SDS011;6127;57.702;11.904;2023-04-02T08:12:02;0.30;;;0.30;;
12127;SDS011;6127;57.702;11.904;2023-04-02T08:14:28;0.37;;;0.37;;
12127;SDS011;6127;57.702;11.904;2023-04-02T08:16:55;0.40;;;0.40;;
12127;SDS011;6127;57.702;11.904;2023-04-02T08:19:22;0.40;;;0.40;;
12127;SDS011;6127;57.702;11.904;2023-04-02T08:21:48;0.40;;;0.40;;
12127;SDS011;6127;57.702;11.904;2023-04-02T08:24:16;0.40;;;0.40;;
12127;SDS011;6127;57.702;11.904;2023-04-02T08:26:43;0.30;;;0.30;;
12127;SDS011;6127;57.702;11.904;2023-04-02T08:29:10;0.40;;;0.40;;
12127;SDS011;6127;57.702;11.904;2023-04-02T08:31:36;0.30;;;0.30;;
12127;SDS011;6127;57.702;11.904;2023-04-02T08:34:02;0.40;;;0.40;;
12127;SDS011;6127;57.702;11.904;2023-04-02T08:36:29;0.40;;;0.40;;
12127;SDS011;6127;57.702;11.904;2023-04-02T08:38:57;0.45;;;0.45;;
12127;SDS011;6127;57.702;11.904;2023-04-02T08:41:24;0.40;;;0.40;;
12127;SDS011;6127;57.702;11.904;2023-04-02T08:44:02;0.40;;;0.40;;
12127;SDS011;6127;57.702;11.904;2023-04-02T08:46:41;0.30;;;0.30;;
12127;SDS011;6127;57.702;11.904;2023-04-02T08:49:13;0.30;;;0.30;;
12127;SDS011;6127;57.702;11.904;2023-04-02T08:51:39;0.30;;;0.30;;
12127;SDS011;6127;57.702;11.904;2023-04-02T08:54:13;0.40;;;0.40;;
12127;SDS011;6127;57.702;11.904;2023-04-02T08:56:47;0.30;;;0.30;;
12127;SDS011;6127;57.702;11.904;2023-04-02T08:59:19;0.30;;;0.30;;
12127;SDS011;6127;57.702;11.904;2023-04-02T09:01:55;0.20;;;0.20;;
12127;SDS011;6127;57.702;11.904;2023-04-02T09:04:23;0.30;;;0.30;;
12127;SDS011;6127;57.702;11.904;2023-04-02T09:06:51;0.40;;;0.40;;
12127;SDS011;6127;57.702;11.904;2023-04-02T09:09:18;0.30;;;0.30;;
12127;SDS011;6127;57.702;11.904;2023-04-02T09:11:55;0.20;;;0.20;;
12127;SDS011;6127;57.702;11.904;2023-04-02T09:17:07;0.30;;;0.30;;
12127;SDS011;6127;57.702;11.904;2023-04-02T09:19:40;0.30;;;0.30;;
12127;SDS011;6127;57.702;11.904;2023-04-02T09:22:13;0.17;;;0.17;;
12127;SDS011;6127;57.702;11.904;2023-04-02T09:24:43;0.43;;;0.43;;
12127;SDS011;6127;57.702;11.904;2023-04-02T09:27:19;0.40;;;0.40;;
12127;SDS011;6127;57.702;11.904;2023-04-02T09:29:47;0.40;;;0.40;;
12127;SDS011;6127;57.702;11.904;2023-04-02T09:32:20;0.30;;;0.30;;
12127;SDS011;6127;57.702;11.904;2023-04-02T09:34:47;0.30;;;0.30;;
12127;SDS011;6127;57.702;11.904;2023-04-02T09:37:14;0.20;;;0.20;;
12127;SDS011;6127;57.702;11.904;2023-04-02T09:39:40;0.20;;;0.20;;
12127;SDS011;6127;57.702;11.904;2023-04-02T09:42:07;0.30;;;0.30;;
12127;SDS011;6127;57.702;11.904;2023-04-02T09:44:52;0.40;;;0.40;;
12127;SDS011;6127;57.702;11.904;2023-04-02T09:47:22;0.30;;;0.30;;
12127;SDS011;6127;57.702;11.904;2023-04-02T09:49:49;0.20;;;0.20;;
12127;SDS011;6127;57.702;11.904;2023-04-02T09:54:45;0.40;;;0.40;;
12127;SDS011;6127;57.702;11.904;2023-04-02T09:59:45;0.10;;;0.10;;
12127;SDS011;6127;57.702;11.904;2023-04-02T10:02:22;0.40;;;0.40;;
12127;SDS011;6127;57.702;11.904;2023-04-02T10:04:48;0.20;;;0.20;;
12127;SDS011;6127;57.702;11.904;2023-04-02T10:10:29;0.15;;;0.15;;
12127;SDS011;6127;57.702;11.904;2023-04-02T10:12:58;0.10;;;0.10;;
12127;SDS011;6127;57.702;11.904;2023-04-02T10:15:26;0.20;;;0.20;;
12127;SDS011;6127;57.702;11.904;2023-04-02T10:18:10;0.20;;;0.20;;
12127;SDS011;6127;57.702;11.904;2023-04-02T10:20:38;0.20;;;0.20;;
12127;SDS011;6127;57.702;11.904;2023-04-02T10:23:04;0.20;;;0.20;;
12127;SDS011;6127;57.702;11.904;2023-04-02T10:25:31;0.10;;;0.10;;
12127;SDS011;6127;57.702;11.904;2023-04-02T10:30:29;0.20;;;0.20;;
12127;SDS011;6127;57.702;11.904;2023-04-02T10:33:02;0.10;;;0.10;;
12127;SDS011;6127;57.702;11.904;2023-04-02T10:35:48;0.10;;;0.10;;
12127;SDS011;6127;57.702;11.904;2023-04-02T10:40:57;0.20;;;0.20;;
12127;SDS011;6127;57.702;11.904;2023-04-02T10:48:53;0.20;;;0.20;;
12127;SDS011;6127;57.702;11.904;2023-04-02T10:54:34;0.10;;;0.10;;
12127;SDS011;6127;57.702;11.904;2023-04-02T10:56:34;0.20;;;0.20;;
12127;SDS011;6127;57.702;11.904;2023-04-02T11:01:29;0.10;;;0.10;;
12127;SDS011;6127;57.702;11.904;2023-04-02T11:03:57;0.10;;;0.10;;
12127;SDS011;6127;57.702;11.904;2023-04-02T11:06:26;0.15;;;0.15;;
12127;SDS011;6127;57.702;11.904;2023-04-02T11:08:54;0.20;;;0.20;;
12127;SDS011;6127;57.702;11.904;2023-04-02T11:11:23;0.17;;;0.17;;
12127;SDS011;6127;57.702;11.904;2023-04-02T11:14:00;0.10;;;0.10;;
12127;SDS011;6127;57.702;11.904;2023-04-02T11:16:27;0.15;;;0.15;;
12127;SDS011;6127;57.702;11.904;2023-04-02T11:24:53;0.20;;;0.20;;
12127;SDS011;6127;57.702;11.904;2023-04-02T11:29:39;0.20;;;0.20;;
12127;SDS011;6127;57.702;11.904;2023-04-02T11:32:13;0.28;;;0.28;;
12127;SDS011;6127;57.702;11.904;2023-04-02T11:37:28;0.10;;;0.10;;
12127;SDS011;6127;57.702;11.904;2023-04-02T11:39:55;0.28;;;0.28;;
12127;SDS011;6127;57.702;11.904;2023-04-02T11:42:34;0.20;;;0.20;;
12127;SDS011;6127;57.702;11.904;2023-04-02T11:50:32;0.10;;;0.10;;
12127;SDS011;6127;57.702;11.904;2023-04-02T11:53:02;0.10;;;0.10;;
12127;SDS011;6127;57.702;11.904;2023-04-02T11:58:03;0.20;;;0.20;;
12127;SDS011;6127;57.702;11.904;2023-04-02T12:03:15;0.20;;;0.20;;
12127;SDS011;6127;57.702;11.904;2023-04-02T12:05:53;0.10;;;0.10;;
12127;SDS011;6127;57.702;11.904;2023-04-02T12:11:11;0.20;;;0.20;;
12127;SDS011;6127;57.702;11.904;2023-04-02T12:16:06;0.20;;;0.20;;
12127;SDS011;6127;57.702;11.904;2023-04-02T12:18:33;0.10;;;0.10;;
12127;SDS011;6127;57.702;11.904;2023-04-02T12:20:59;0.20;;;0.20;;
12127;SDS011;6127;57.702;11.904;2023-04-02T12:23:30;0.30;;;0.30;;
12127;SDS011;6127;57.702;11.904;2023-04-02T12:26:03;0.20;;;0.20;;
12127;SDS011;6127;57.702;11.904;2023-04-02T12:28:33;0.20;;;0.20;;
12127;SDS011;6127;57.702;11.904;2023-04-02T12:33:29;0.10;;;0.10;;
12127;SDS011;6127;57.702;11.904;2023-04-02T12:35:58;0.20;;;0.20;;
12127;SDS011;6127;57.702;11.904;2023-04-02T12:38:28;0.20;;;0.20;;
12127;SDS011;6127;57.702;11.904;2023-04-02T12:40:59;0.10;;;0.10;;
12127;SDS011;6127;57.702;11.904;2023-04-02T12:43:29;0.10;;;0.10;;
12127;SDS011;6127;57.702;11.904;2023-04-02T12:45:59;0.30;;;0.30;;
12127;SDS011;6127;57.702;11.904;2023-04-02T12:48:25;0.10;;;0.10;;
12127;SDS011;6127;57.702;11.904;2023-04-02T12:50:52;0.10;;;0.10;;
12127;SDS011;6127;57.702;11.904;2023-04-02T12:53:19;0.10;;;0.10;;
12127;SDS011;6127;57.702;11.904;2023-04-02T12:55:46;0.20;;;0.20;;
12127;SDS011;6127;57.702;11.904;2023-04-02T12:58:23;0.20;;;0.20;;
12127;SDS011;6127;57.702;11.904;2023-04-02T13:00:50;0.17;;;0.17;;
12127;SDS011;6127;57.702;11.904;2023-04-02T13:05:55;0.13;;;0.13;;
12127;SDS011;6127;57.702;11.904;2023-04-02T13:10:51;0.20;;;0.20;;
12127;SDS011;6127;57.702;11.904;2023-04-02T13:13:19;0.25;;;0.25;;
12127;SDS011;6127;57.702;11.904;2023-04-02T13:15:58;0.20;;;0.20;;
12127;SDS011;6127;57.702;11.904;2023-04-02T13:18:24;0.20;;;0.20;;
12127;SDS011;6127;57.702;11.904;2023-04-02T13:20:57;0.20;;;0.20;;
12127;SDS011;6127;57.702;11.904;2023-04-02T13:23:29;0.15;;;0.15;;
12127;SDS011;6127;57.702;11.904;2023-04-02T13:26:00;0.20;;;0.20;;
12127;SDS011;6127;57.702;11.904;2023-04-02T13:28:26;0.20;;;0.20;;
12127;SDS011;6127;57.702;11.904;2023-04-02T13:30:52;0.22;;;0.22;;
12127;SDS011;6127;57.702;11.904;2023-04-02T13:33:18;0.20;;;0.20;;
12127;SDS011;6127;57.702;11.904;2023-04-02T13:35:45;0.10;;;0.10;;
12127;SDS011;6127;57.702;11.904;2023-04-02T13:38:11;0.20;;;0.20;;
12127;SDS011;6127;57.702;11.904;2023-04-02T13:40:37;0.30;;;0.30;;
12127;SDS011;6127;57.702;11.904;2023-04-02T13:43:03;0.20;;;0.20;;
12127;SDS011;6127;57.702;11.904;2023-04-02T13:45:33;0.10;;;0.10;;
12127;SDS011;6127;57.702;11.904;2023-04-02T13:48:01;0.20;;;0.20;;
12127;SDS011;6127;57.702;11.904;2023-04-02T13:50:28;0.30;;;0.30;;
12127;SDS011;6127;57.702;11.904;2023-04-02T13:52:56;0.20;;;0.20;;
12127;SDS011;6127;57.702;11.904;2023-04-02T13:55:23;0.10;;;0.10;;
12127;SDS011;6127;57.702;11.904;2023-04-02T13:57:50;0.20;;;0.20;;
12127;SDS011;6127;57.702;11.904;2023-04-02T14:00:16;0.30;;;0.30;;
12127;SDS011;6127;57.702;11.904;2023-04-02T14:02:43;0.20;;;0.20;;
12127;SDS011;6127;57.702;11.904;2023-04-02T14:05:16;0.10;;;0.10;;
12127;SDS011;6127;57.702;11.904;2023-04-02T14:10:59;0.30;;;0.30;;
12127;SDS011;6127;57.702;11.904;2023-04-02T14:16:15;0.20;;;0.20;;
12127;SDS011;6127;57.702;11.904;2023-04-02T14:18:46;0.10;;;0.10;;
12127;SDS011;6127;57.702;11.904;2023-04-02T14:26:25;0.10;;;0.10;;
12127;SDS011;6127;57.702;11.904;2023-04-02T14:29:09;0.30;;;0.30;;
12127;SDS011;6127;57.702;11.904;2023-04-02T14:31:39;0.30;;;0.30;;
12127;SDS011;6127;57.702;11.904;2023-04-02T14:34:26;0.13;;;0.13;;
12127;SDS011;6127;57.702;11.904;2023-04-02T14:42:13;0.10;;;0.10;;
12127;SDS011;6127;57.702;11.904;2023-04-02T14:44:42;0.30;;;0.30;;
12127;SDS011;6127;57.702;11.904;2023-04-02T14:47:13;0.20;;;0.20;;
12127;SDS011;6127;57.702;11.904;2023-04-02T14:49:40;0.20;;;0.20;;
12127;SDS011;6127;57.702;11.904;2023-04-02T14:52:09;0.30;;;0.30;;
12127;SDS011;6127;57.702;11.904;2023-04-02T14:54:39;0.10;;;0.10;;
12127;SDS011;6127;57.702;11.904;2023-04-02T15:02:35;0.20;;;0.20;;
12127;SDS011;6127;57.702;11.904;2023-04-02T15:07:39;0.17;;;0.17;;
12127;SDS011;6127;57.702;11.904;2023-04-02T15:12:51;0.30;;;0.30;;
12127;SDS011;6127;57.702;11.904;2023-04-02T15:15:19;0.10;;;0.10;;
12127;SDS011;6127;57.702;11.904;2023-04-02T15:17:47;0.30;;;0.30;;
12127;SDS011;6127;57.702;11.904;2023-04-02T15:20:16;0.10;;;0.10;;
12127;SDS011;6127;57.702;11.904;2023-04-02T15:27:50;0.28;;;0.28;;
12127;SDS011;6127;57.702;11.904;2023-04-02T15:30:24;0.30;;;0.30;;
12127;SDS011;6127;57.702;11.904;2023-04-02T15:32:50;0.20;;;0.20;;
12127;SDS011;6127;57.702;11.904;2023-04-02T15:35:37;0.30;;;0.30;;
12127;SDS011;6127;57.702;11.904;2023-04-02T15:43:09;0.13;;;0.13;;
12127;SDS011;6127;57.702;11.904;2023-04-02T15:45:41;0.30;;;0.30;;
12127;SDS011;6127;57.702;11.904;2023-04-02T15:53:19;0.13;;;0.13;;
12127;SDS011;6127;57.702;11.904;2023-04-02T15:55:54;0.30;;;0.30;;
12127;SDS011;6127;57.702;11.904;2023-04-02T16:03:37;0.30;;;0.30;;
12127;SDS011;6127;57.702;11.904;2023-04-02T16:11:28;0.20;;;0.20;;
12127;SDS011;6127;57.702;11.904;2023-04-02T16:13:58;0.20;;;0.20;;
12127;SDS011;6127;57.702;11.904;2023-04-02T16:16:28;0.30;;;0.30;;
12127;SDS011;6127;57.702;11.904;2023-04-02T16:19:01;0.20;;;0.20;;
12127;SDS011;6127;57.702;11.904;2023-04-02T16:21:37;0.40;;;0.40;;
12127;SDS011;6127;57.702;11.904;2023-04-02T16:24:08;0.20;;;0.20;;
12127;SDS011;6127;57.702;11.904;2023-04-02T16:26:39;0.30;;;0.30;;
12127;SDS011;6127;57.702;11.904;2023-04-02T16:29:14;0.20;;;0.20;;
12127;SDS011;6127;57.702;11.904;2023-04-02T16:31:52;0.32;;;0.32;;
12127;SDS011;6127;57.702;11.904;2023-04-02T16:34:30;0.22;;;0.22;;
12127;SDS011;6127;57.702;11.904;2023-04-02T16:37:06;0.38;;;0.38;;
12127;SDS011;6127;57.702;11.904;2023-04-02T16:39:50;0.20;;;0.20;;
12127;SDS011;6127;57.702;11.904;2023-04-02T16:47:39;0.20;;;0.20;;
12127;SDS011;6127;57.702;11.904;2023-04-02T16:50:17;0.40;;;0.40;;
12127;SDS011;6127;57.702;11.904;2023-04-02T16:55:24;0.30;;;0.30;;
12127;SDS011;6127;57.702;11.904;2023-04-02T17:05:44;0.40;;;0.40;;
12127;SDS011;6127;57.702;11.904;2023-04-02T17:10:53;0.30;;;0.30;;
12127;SDS011;6127;57.702;11.904;2023-04-02T17:16:19;0.55;;;0.55;;
12127;SDS011;6127;57.702;11.904;2023-04-02T17:18:47;0.50;;;0.50;;
12127;SDS011;6127;57.702;11.904;2023-04-02T17:21:14;0.50;;;0.50;;
12127;SDS011;6127;57.702;11.904;2023-04-02T17:23:44;0.50;;;0.50;;
12127;SDS011;6127;57.702;11.904;2023-04-02T17:26:12;0.50;;;0.50;;
12127;SDS011;6127;57.702;11.904;2023-04-02T17:28:39;0.57;;;0.57;;
12127;SDS011;6127;57.702;11.904;2023-04-02T17:31:12;0.50;;;0.50;;
12127;SDS011;6127;57.702;11.904;2023-04-02T17:33:39;0.50;;;0.50;;
12127;SDS011;6127;57.702;11.904;2023-04-02T17:41:21;0.50;;;0.50;;
12127;SDS011;6127;57.702;11.904;2023-04-02T17:46:19;0.57;;;0.57;;
12127;SDS011;6127;57.702;11.904;2023-04-02T17:48:47;0.50;;;0.50;;
12127;SDS011;6127;57.702;11.904;2023-04-02T17:53:46;0.38;;;0.38;;
12127;SDS011;6127;57.702;11.904;2023-04-02T17:56:28;0.38;;;0.38;;
12127;SDS011;6127;57.702;11.904;2023-04-02T18:06:45;0.30;;;0.30;;
12127;SDS011;6127;57.702;11.904;2023-04-02T18:12:05;0.30;;;0.30;;
12127;SDS011;6127;57.702;11.904;2023-04-02T18:19:49;0.40;;;0.40;;
12127;SDS011;6127;57.702;11.904;2023-04-02T18:22:25;0.50;;;0.50;;
12127;SDS011;6127;57.702;11.904;2023-04-02T18:37:37;0.40;;;0.40;;
12127;SDS011;6127;57.702;11.904;2023-04-02T18:40:13;0.40;;;0.40;;
12127;SDS011;6127;57.702;11.904;2023-04-02T18:42:53;0.50;;;0.50;;
12127;SDS011;6127;57.702;11.904;2023-04-02T18:45:23;0.50;;;0.50;;
12127;SDS011;6127;57.702;11.904;2023-04-02T18:50:30;0.40;;;0.40;;
12127;SDS011;6127;57.702;11.904;2023-04-02T18:52:57;0.40;;;0.40;;
12127;SDS011;6127;57.702;11.904;2023-04-02T18:55:23;0.50;;;0.50;;
12127;SDS011;6127;57.702;11.904;2023-04-02T18:57:54;0.50;;;0.50;;
12127;SDS011;6127;57.702;11.904;2023-04-02T19:00:27;0.50;;;0.50;;
12127;SDS011;6127;57.702;11.904;2023-04-02T19:05:38;0.40;;;0.40;;
12127;SDS011;6127;57.702;11.904;2023-04-02T19:11:37;0.50;;;0.50;;
12127;SDS011;6127;57.702;11.904;2023-04-02T19:13:57;0.52;;;0.52;;